createdAt,value
2022-09-21T00:00:38.728Z,7.42
2022-09-21T00:01:38.771Z,7.44
2022-09-21T00:02:38.773Z,7.41
2022-09-21T00:03:38.697Z,7.40
2022-09-21T00:04:38.704Z,7.35
2022-09-21T00:05:38.668Z,7.37
2022-09-21T00:06:38.676Z,7.38
2022-09-21T00:07:38.658Z,7.37
2022-09-21T00:08:38.640Z,7.37
2022-09-21T00:09:38.626Z,7.34
2022-09-21T00:10:38.608Z,7.32
2022-09-21T00:11:38.606Z,7.31
2022-09-21T00:12:38.603Z,7.27
2022-09-21T00:13:38.612Z,7.29
2022-09-21T00:14:38.565Z,7.31
2022-09-21T00:15:38.592Z,7.29
2022-09-21T00:16:38.588Z,7.29
2022-09-21T00:17:38.545Z,7.27
2022-09-21T00:18:38.557Z,7.26
2022-09-21T00:19:38.518Z,7.26
2022-09-21T00:20:38.493Z,7.22
2022-09-21T00:21:38.485Z,7.19
2022-09-21T00:22:38.487Z,7.17
2022-09-21T00:23:38.479Z,7.17
2022-09-21T00:24:38.444Z,7.16
2022-09-21T00:25:38.439Z,7.12
2022-09-21T00:26:38.510Z,7.08
2022-09-21T00:27:38.421Z,7.08
2022-09-21T00:28:38.432Z,7.05
2022-09-21T00:29:38.393Z,7.02
2022-09-21T00:30:38.384Z,6.99
2022-09-21T00:31:38.436Z,6.95
2022-09-21T00:32:38.353Z,6.95
2022-09-21T00:33:38.379Z,6.95
2022-09-21T00:34:38.360Z,6.95
2022-09-21T00:35:38.336Z,6.94
2022-09-21T00:36:38.328Z,6.91
2022-09-21T00:37:38.301Z,6.87
2022-09-21T00:38:38.294Z,6.89
2022-09-21T00:39:38.280Z,6.86
2022-09-21T00:40:38.321Z,6.84
2022-09-21T00:41:38.269Z,6.83
2022-09-21T00:42:38.242Z,6.83
2022-09-21T00:43:38.232Z,6.83
2022-09-21T00:44:38.242Z,6.84
2022-09-21T00:45:38.375Z,6.83
2022-09-21T00:46:38.209Z,6.81
2022-09-21T00:47:38.190Z,6.83
2022-09-21T00:48:38.180Z,6.83
2022-09-21T00:49:38.177Z,6.84
2022-09-21T00:50:38.200Z,6.81
2022-09-21T00:51:38.207Z,6.81
2022-09-21T00:52:38.135Z,6.81
2022-09-21T00:53:38.129Z,6.80
2022-09-21T00:54:38.124Z,6.73
2022-09-21T00:55:38.110Z,6.76
2022-09-21T00:56:38.092Z,6.72
2022-09-21T00:57:38.107Z,6.72
2022-09-21T00:58:38.068Z,6.72
2022-09-21T00:59:38.058Z,6.69
2022-09-21T01:00:38.115Z,6.68
2022-09-21T01:01:38.068Z,6.63
2022-09-21T01:02:38.027Z,6.62
2022-09-21T01:03:38.008Z,6.61
2022-09-21T01:04:38.050Z,6.61
2022-09-21T01:05:37.999Z,6.58
2022-09-21T01:06:37.997Z,6.58
2022-09-21T01:07:37.957Z,6.58
2022-09-21T01:08:37.977Z,6.54
2022-09-21T01:09:37.947Z,6.56
2022-09-21T01:10:37.941Z,6.53
2022-09-21T01:11:37.916Z,6.51
2022-09-21T01:12:37.898Z,6.51
2022-09-21T01:13:37.906Z,6.47
2022-09-21T01:14:37.894Z,6.44
2022-09-21T01:15:37.872Z,6.43
2022-09-21T01:16:37.917Z,6.43
2022-09-21T01:17:37.854Z,6.43
2022-09-21T01:18:37.844Z,6.43
2022-09-21T01:19:37.822Z,6.44
2022-09-21T01:20:37.826Z,6.41
2022-09-21T01:21:37.813Z,6.43
2022-09-21T01:22:37.796Z,6.43
2022-09-21T01:23:37.783Z,6.44
2022-09-21T01:24:37.773Z,6.43
2022-09-21T01:25:37.761Z,6.41
2022-09-21T01:26:37.743Z,6.41
2022-09-21T01:27:37.742Z,6.41
2022-09-21T01:28:37.733Z,6.41
2022-09-21T01:29:37.713Z,6.43
2022-09-21T01:30:37.693Z,6.40
2022-09-21T01:31:37.755Z,6.40
2022-09-21T01:32:37.671Z,6.43
2022-09-21T01:33:37.680Z,6.38
2022-09-21T01:34:37.647Z,6.36
2022-09-21T01:35:37.640Z,6.38
2022-09-21T01:36:37.622Z,6.36
2022-09-21T01:37:37.643Z,6.33
2022-09-21T01:38:37.610Z,6.32
2022-09-21T01:39:37.610Z,6.33
2022-09-21T01:40:37.647Z,6.33
2022-09-21T01:41:37.579Z,6.30
2022-09-21T01:42:37.571Z,6.33
2022-09-21T01:43:37.583Z,6.30
2022-09-21T01:44:37.530Z,6.28
2022-09-21T01:45:37.549Z,6.28
2022-09-21T01:46:37.509Z,6.26
2022-09-21T01:47:37.519Z,6.26
2022-09-21T01:48:37.484Z,6.25
2022-09-21T01:49:37.480Z,6.22
2022-09-21T01:50:37.494Z,6.19
2022-09-21T01:51:37.460Z,6.16
2022-09-21T01:52:37.466Z,6.13
2022-09-21T01:53:37.441Z,6.10
2022-09-21T01:54:37.422Z,6.07
2022-09-21T01:55:37.415Z,6.07
2022-09-21T01:56:37.407Z,6.06
2022-09-21T01:57:37.386Z,6.04
2022-09-21T01:58:37.377Z,6.01
2022-09-21T01:59:37.397Z,6.04
2022-09-21T02:00:37.467Z,6.03
2022-09-21T02:01:37.391Z,6.03
2022-09-21T02:02:37.325Z,6.00
2022-09-21T02:03:37.334Z,6.00
2022-09-21T02:04:37.307Z,5.98
2022-09-21T02:05:37.303Z,5.95
2022-09-21T02:06:37.312Z,5.93
2022-09-21T02:07:37.271Z,5.91
2022-09-21T02:08:37.282Z,5.93
2022-09-21T02:09:37.256Z,5.91
2022-09-21T02:10:37.230Z,5.86
2022-09-21T02:11:37.223Z,5.83
2022-09-21T02:12:37.203Z,5.83
2022-09-21T02:13:37.212Z,5.82
2022-09-21T02:14:37.257Z,5.78
2022-09-21T02:15:37.185Z,5.78
2022-09-21T02:16:37.192Z,5.78
2022-09-21T02:17:37.153Z,5.77
2022-09-21T02:18:37.178Z,5.77
2022-09-21T02:19:37.130Z,5.77
2022-09-21T02:20:37.121Z,5.74
2022-09-21T02:21:37.108Z,5.77
2022-09-21T02:22:37.093Z,5.74
2022-09-21T02:23:37.080Z,5.75
2022-09-21T02:24:37.087Z,5.68
2022-09-21T02:25:37.094Z,5.68
2022-09-21T02:26:37.052Z,5.70
2022-09-21T02:27:37.040Z,5.68
2022-09-21T02:28:37.031Z,5.68
2022-09-21T02:29:37.023Z,5.70
2022-09-21T02:30:37.019Z,5.66
2022-09-21T02:31:37.037Z,5.63
2022-09-21T02:32:36.978Z,5.56
2022-09-21T02:33:36.981Z,5.56
2022-09-21T02:34:36.958Z,5.56
2022-09-21T02:35:36.961Z,5.53
2022-09-21T02:36:36.954Z,5.53
2022-09-21T02:37:36.929Z,5.50
2022-09-21T02:38:36.917Z,5.52
2022-09-21T02:39:36.908Z,5.48
2022-09-21T02:40:36.912Z,5.48
2022-09-21T02:41:36.927Z,5.45
2022-09-21T02:42:36.866Z,5.48
2022-09-21T02:43:36.859Z,5.46
2022-09-21T02:44:36.837Z,5.46
2022-09-21T02:45:36.837Z,5.46
2022-09-21T02:46:36.876Z,5.43
2022-09-21T02:47:36.819Z,5.41
2022-09-21T02:48:36.796Z,5.41
2022-09-21T02:49:36.806Z,5.38
2022-09-21T02:50:36.784Z,5.37
2022-09-21T02:51:36.766Z,5.38
2022-09-21T02:52:36.773Z,5.37
2022-09-21T02:53:36.743Z,5.37
2022-09-21T02:54:36.730Z,5.37
2022-09-21T02:55:36.721Z,5.38
2022-09-21T02:56:36.714Z,5.35
2022-09-21T02:57:36.712Z,5.34
2022-09-21T02:58:36.693Z,5.34
2022-09-21T02:59:36.667Z,5.35
2022-09-21T03:00:36.676Z,5.35
2022-09-21T03:01:36.729Z,5.35
2022-09-21T03:02:36.666Z,5.34
2022-09-21T03:03:36.635Z,5.35
2022-09-21T03:04:36.621Z,5.35
2022-09-21T03:05:36.613Z,5.35
2022-09-21T03:06:36.599Z,5.34
2022-09-21T03:07:36.599Z,5.35
2022-09-21T03:08:36.574Z,5.35
2022-09-21T03:09:36.558Z,5.31
2022-09-21T03:10:36.562Z,5.31
2022-09-21T03:11:36.551Z,5.31
2022-09-21T03:12:36.529Z,5.25
2022-09-21T03:13:36.529Z,5.22
2022-09-21T03:14:36.511Z,5.19
2022-09-21T03:15:36.552Z,5.19
2022-09-21T03:16:36.480Z,5.14
2022-09-21T03:17:36.487Z,5.14
2022-09-21T03:18:36.484Z,5.14
2022-09-21T03:19:36.459Z,5.13
2022-09-21T03:20:36.436Z,5.13
2022-09-21T03:21:37.679Z,5.12
2022-09-21T03:22:36.416Z,5.05
2022-09-21T03:23:36.437Z,5.02
2022-09-21T03:24:36.406Z,5.01
2022-09-21T03:25:36.407Z,4.99
2022-09-21T03:26:36.367Z,4.96
2022-09-21T03:27:36.395Z,4.94
2022-09-21T03:28:36.349Z,4.96
2022-09-21T03:29:36.363Z,4.95
2022-09-21T03:30:36.335Z,4.94
2022-09-21T03:31:36.306Z,4.92
2022-09-21T03:32:36.310Z,4.89
2022-09-21T03:33:36.293Z,4.91
2022-09-21T03:34:36.279Z,4.88
2022-09-21T03:35:36.271Z,4.88
2022-09-21T03:36:36.259Z,4.89
2022-09-21T03:37:41.096Z,4.89
2022-09-21T03:38:37.231Z,4.89
2022-09-21T03:39:36.215Z,4.91
2022-09-21T03:40:36.286Z,4.88
2022-09-21T03:41:36.215Z,4.89
2022-09-21T03:42:36.193Z,4.86
2022-09-21T03:43:36.183Z,4.84
2022-09-21T03:44:36.173Z,4.86
2022-09-21T03:45:36.149Z,4.83
2022-09-21T03:46:36.162Z,4.80
2022-09-21T03:47:36.143Z,4.80
2022-09-21T03:48:36.120Z,4.83
2022-09-21T03:49:36.110Z,4.79
2022-09-21T03:50:36.106Z,4.77
2022-09-21T03:51:36.080Z,4.73
2022-09-21T03:52:36.090Z,4.72
2022-09-21T03:53:36.061Z,4.70
2022-09-21T03:54:36.049Z,4.70
2022-09-21T03:55:36.058Z,4.67
2022-09-21T03:56:36.037Z,4.69
2022-09-21T03:57:36.042Z,4.69
2022-09-21T03:58:36.029Z,4.69
2022-09-21T03:59:36.003Z,4.72
2022-09-21T04:00:35.978Z,4.72
2022-09-21T04:01:35.995Z,4.77
2022-09-21T04:02:36.011Z,4.80
2022-09-21T04:03:35.948Z,4.86
2022-09-21T04:04:35.948Z,4.84
2022-09-21T04:05:35.928Z,4.88
2022-09-21T04:06:35.907Z,4.89
2022-09-21T04:07:35.899Z,4.91
2022-09-21T04:08:35.917Z,4.95
2022-09-21T04:09:35.909Z,4.91
2022-09-21T04:10:35.868Z,4.94
2022-09-21T04:11:35.867Z,4.96
2022-09-21T04:12:35.854Z,4.99
2022-09-21T04:13:35.889Z,4.99
2022-09-21T04:14:35.827Z,5.02
2022-09-21T04:15:35.835Z,5.05
2022-09-21T04:16:35.808Z,5.12
2022-09-21T04:17:35.798Z,5.12
2022-09-21T04:18:35.774Z,5.12
2022-09-21T04:19:35.815Z,5.14
2022-09-21T04:20:35.753Z,5.19
2022-09-21T04:21:35.754Z,5.22
2022-09-21T04:22:38.716Z,5.23
2022-09-21T04:23:36.723Z,5.28
2022-09-21T04:24:35.720Z,5.28
2022-09-21T04:25:35.703Z,5.31
2022-09-21T04:26:35.682Z,5.32
2022-09-21T04:27:35.696Z,5.34
2022-09-21T04:28:35.671Z,5.38
2022-09-21T04:29:35.664Z,5.37
2022-09-21T04:30:38.003Z,5.37
2022-09-21T04:31:35.632Z,5.40
2022-09-21T04:32:35.619Z,5.43
2022-09-21T04:33:35.601Z,5.43
2022-09-21T04:34:35.669Z,5.45
2022-09-21T04:35:35.590Z,5.43
2022-09-21T04:36:36.792Z,5.41
2022-09-21T04:37:35.587Z,5.37
2022-09-21T04:38:35.550Z,5.40
2022-09-21T04:39:35.545Z,5.41
2022-09-21T04:40:35.574Z,5.43
2022-09-21T04:41:35.511Z,5.45
2022-09-21T04:42:35.512Z,5.43
2022-09-21T04:43:35.489Z,5.40
2022-09-21T04:44:35.488Z,5.30
2022-09-21T04:45:35.486Z,5.28
2022-09-21T04:46:35.557Z,5.27
2022-09-21T04:47:35.473Z,5.28
2022-09-21T04:48:35.439Z,5.27
2022-09-21T04:49:35.477Z,5.31
2022-09-21T04:50:35.443Z,5.30
2022-09-21T04:51:35.395Z,5.32
2022-09-21T04:52:35.378Z,5.32
2022-09-21T04:53:35.410Z,5.35
2022-09-21T04:54:35.361Z,5.40
2022-09-21T04:55:35.375Z,5.43
2022-09-21T04:56:35.336Z,5.46
2022-09-21T04:57:35.334Z,5.46
2022-09-21T04:58:35.306Z,5.49
2022-09-21T04:59:35.315Z,5.53
2022-09-21T05:00:35.308Z,5.57
2022-09-21T05:01:35.357Z,5.60
2022-09-21T05:02:35.278Z,5.66
2022-09-21T05:03:35.303Z,5.67
2022-09-21T05:04:35.270Z,5.70
2022-09-21T05:05:35.252Z,5.74
2022-09-21T05:06:35.226Z,5.73
2022-09-21T05:07:35.227Z,5.73
2022-09-21T05:08:35.197Z,5.71
2022-09-21T05:09:35.191Z,5.73
2022-09-21T05:10:35.215Z,5.73
2022-09-21T05:11:35.195Z,5.74
2022-09-21T05:12:38.591Z,5.74
2022-09-21T05:13:36.162Z,5.73
2022-09-21T05:14:35.132Z,5.73
2022-09-21T05:15:35.157Z,5.73
2022-09-21T05:16:35.112Z,5.74
2022-09-21T05:17:35.147Z,5.73
2022-09-21T05:18:35.094Z,5.73
2022-09-21T05:19:35.108Z,5.74
2022-09-21T05:20:35.087Z,5.75
2022-09-21T05:21:35.061Z,5.77
2022-09-21T05:22:35.063Z,5.78
2022-09-21T05:23:35.028Z,5.81
2022-09-21T05:24:35.139Z,5.83
2022-09-21T05:25:34.999Z,5.82
2022-09-21T05:26:35.001Z,5.85
2022-09-21T05:27:34.989Z,5.88
2022-09-21T05:28:39.236Z,5.91
2022-09-21T05:29:35.960Z,5.91
2022-09-21T05:30:34.960Z,5.91
2022-09-21T05:31:35.023Z,5.98
2022-09-21T05:32:34.932Z,6.00
2022-09-21T05:33:34.925Z,6.01
2022-09-21T05:34:36.753Z,6.04
2022-09-21T05:35:34.896Z,6.06
2022-09-21T05:36:34.898Z,6.09
2022-09-21T05:37:34.870Z,6.11
2022-09-21T05:38:34.916Z,6.14
2022-09-21T05:39:34.850Z,6.16
2022-09-21T05:40:34.844Z,6.19
2022-09-21T05:41:34.817Z,6.22
2022-09-21T05:42:34.804Z,6.26
2022-09-21T05:43:34.825Z,6.26
2022-09-21T05:44:34.875Z,6.28
2022-09-21T05:45:34.801Z,6.26
2022-09-21T05:46:34.768Z,6.29
2022-09-21T05:47:34.753Z,6.30
2022-09-21T05:48:34.745Z,6.33
2022-09-21T05:49:34.732Z,6.35
2022-09-21T05:50:34.736Z,6.41
2022-09-21T05:51:34.705Z,6.41
2022-09-21T05:52:34.694Z,6.40
2022-09-21T05:53:34.677Z,6.40
2022-09-21T05:54:34.683Z,6.43
2022-09-21T05:55:34.653Z,6.41
2022-09-21T05:56:34.682Z,6.43
2022-09-21T05:57:34.625Z,6.46
2022-09-21T05:58:34.669Z,6.47
2022-09-21T05:59:34.632Z,6.46
2022-09-21T06:00:34.603Z,6.48
2022-09-21T06:01:34.649Z,6.50
2022-09-21T06:02:34.628Z,6.54
2022-09-21T06:03:34.562Z,6.54
2022-09-21T06:04:34.567Z,6.58
2022-09-21T06:05:34.574Z,6.58
2022-09-21T06:06:34.569Z,6.62
2022-09-21T06:07:34.531Z,6.58
2022-09-21T06:08:34.526Z,6.58
2022-09-21T06:09:34.494Z,6.59
2022-09-21T06:10:34.506Z,6.62
2022-09-21T06:11:34.470Z,6.65
2022-09-21T06:12:34.460Z,6.69
2022-09-21T06:13:34.482Z,6.73
2022-09-21T06:14:34.446Z,6.76
2022-09-21T06:15:34.436Z,6.80
2022-09-21T06:16:34.478Z,6.84
2022-09-21T06:17:34.399Z,6.87
2022-09-21T06:18:34.399Z,6.91
2022-09-21T06:19:34.437Z,6.95
2022-09-21T06:20:34.388Z,6.97
2022-09-21T06:21:34.348Z,7.01
2022-09-21T06:22:34.357Z,7.01
2022-09-21T06:23:34.335Z,7.07
2022-09-21T06:24:34.327Z,7.07
2022-09-21T06:25:34.316Z,7.12
2022-09-21T06:26:34.309Z,7.13
2022-09-21T06:27:34.304Z,7.17
2022-09-21T06:28:34.287Z,7.22
2022-09-21T06:29:34.267Z,7.22
2022-09-21T06:30:34.273Z,7.24
2022-09-21T06:31:34.247Z,7.29
2022-09-21T06:32:34.236Z,7.26
2022-09-21T06:33:34.219Z,7.31
2022-09-21T06:34:34.204Z,7.29
2022-09-21T06:35:34.205Z,7.31
2022-09-21T06:36:34.195Z,7.32
2022-09-21T06:37:34.166Z,7.35
2022-09-21T06:38:34.175Z,7.38
2022-09-21T06:39:34.151Z,7.42
2022-09-21T06:40:34.226Z,7.45
2022-09-21T06:41:34.132Z,7.44
2022-09-21T06:42:34.125Z,7.45
2022-09-21T06:43:34.105Z,7.42
2022-09-21T06:44:34.152Z,7.44
2022-09-21T06:45:34.215Z,7.44
2022-09-21T06:46:34.083Z,7.44
2022-09-21T06:47:34.137Z,7.45
2022-09-21T06:48:34.053Z,7.49
2022-09-21T06:49:34.038Z,7.52
2022-09-21T06:50:34.042Z,7.55
2022-09-21T06:51:34.022Z,7.60
2022-09-21T06:52:34.012Z,7.67
2022-09-21T06:53:33.993Z,7.72
2022-09-21T06:54:33.992Z,7.78
2022-09-21T06:55:34.009Z,7.81
2022-09-21T06:56:33.970Z,7.89
2022-09-21T06:57:33.948Z,7.92
2022-09-21T06:58:33.974Z,7.94
2022-09-21T06:59:33.936Z,7.99
2022-09-21T07:00:33.913Z,8.00
2022-09-21T07:01:34.064Z,7.99
2022-09-21T07:02:33.899Z,8.00
2022-09-21T07:03:33.882Z,8.07
2022-09-21T07:04:33.884Z,8.07
2022-09-21T07:05:33.857Z,8.12
2022-09-21T07:06:33.858Z,8.15
2022-09-21T07:07:33.944Z,8.17
2022-09-21T07:10:34.806Z,8.26
2022-09-21T07:11:33.813Z,8.32
2022-09-21T07:12:33.802Z,8.33
2022-09-21T07:13:33.769Z,8.35
2022-09-21T07:14:33.757Z,8.37
2022-09-21T07:15:33.747Z,8.37
2022-09-21T07:16:33.762Z,8.39
2022-09-21T07:17:33.721Z,8.42
2022-09-21T07:18:42.522Z,8.44
2022-09-21T07:19:34.696Z,8.47
2022-09-21T07:20:33.697Z,8.47
2022-09-21T07:21:33.686Z,8.51
2022-09-21T07:22:33.684Z,8.54
2022-09-21T07:23:33.655Z,8.55
2022-09-21T07:24:33.646Z,8.58
2022-09-21T07:25:33.682Z,8.62
2022-09-21T07:26:33.623Z,8.63
2022-09-21T07:27:33.618Z,8.65
2022-09-21T07:28:33.603Z,8.65
2022-09-21T07:29:33.584Z,8.69
2022-09-21T07:30:33.585Z,8.73
2022-09-21T07:31:33.621Z,8.76
2022-09-21T07:32:33.565Z,8.84
2022-09-21T07:33:36.009Z,8.86
2022-09-21T07:34:33.534Z,8.93
2022-09-21T07:35:33.526Z,8.96
2022-09-21T07:36:33.551Z,8.96
2022-09-21T07:37:33.515Z,8.99
2022-09-21T07:38:33.487Z,8.99
2022-09-21T07:39:33.490Z,9.01
2022-09-21T07:40:33.571Z,9.04
2022-09-21T07:41:33.477Z,9.05
2022-09-21T07:42:33.453Z,9.06
2022-09-21T07:43:33.445Z,9.12
2022-09-21T07:44:33.421Z,9.12
2022-09-21T07:45:33.471Z,9.13
2022-09-21T07:46:33.391Z,9.12
2022-09-21T07:47:33.383Z,9.06
2022-09-21T07:48:33.382Z,9.05
2022-09-21T07:49:33.372Z,9.06
2022-09-21T07:50:33.353Z,9.04
2022-09-21T07:51:33.330Z,9.09
2022-09-21T07:52:33.337Z,9.06
2022-09-21T07:53:33.321Z,9.06
2022-09-21T07:54:33.309Z,9.12
2022-09-21T07:55:33.278Z,9.18
2022-09-21T07:56:33.299Z,9.16
2022-09-21T07:57:33.271Z,9.21
2022-09-21T07:58:33.267Z,9.21
2022-09-21T07:59:33.248Z,9.30
2022-09-21T08:00:33.318Z,9.40
2022-09-21T08:01:33.222Z,9.57
2022-09-21T08:02:33.236Z,9.67
2022-09-21T08:03:33.199Z,9.75
2022-09-21T08:04:33.198Z,9.83
2022-09-21T08:05:33.169Z,9.96
2022-09-21T08:06:33.229Z,10.00
2022-09-21T08:07:33.160Z,10.09
2022-09-21T08:08:34.103Z,10.14
2022-09-21T08:09:33.158Z,10.17
2022-09-21T08:10:33.117Z,10.25
2022-09-21T08:11:33.233Z,10.30
2022-09-21T08:12:33.103Z,10.37
2022-09-21T08:13:33.076Z,10.44
2022-09-21T08:14:33.084Z,10.47
2022-09-21T08:15:50.197Z,10.53
2022-09-21T08:16:34.267Z,10.51
2022-09-21T08:17:33.036Z,10.58
2022-09-21T08:18:33.041Z,10.59
2022-09-21T08:19:33.036Z,10.62
2022-09-21T08:20:33.030Z,10.66
2022-09-21T08:21:32.995Z,10.71
2022-09-21T08:22:32.984Z,10.70
2022-09-21T08:23:32.974Z,10.74
2022-09-21T08:24:32.976Z,10.77
2022-09-21T08:25:32.956Z,10.86
2022-09-21T08:26:32.934Z,10.89
2022-09-21T08:27:32.924Z,10.92
2022-09-21T08:28:32.918Z,10.98
2022-09-21T08:29:32.903Z,11.01
2022-09-21T08:30:32.910Z,11.06
2022-09-21T08:31:32.918Z,11.10
2022-09-21T08:32:50.472Z,11.14
2022-09-21T08:33:33.854Z,11.17
2022-09-21T08:34:32.843Z,11.21
2022-09-21T08:35:33.083Z,11.21
2022-09-21T08:36:32.876Z,11.25
2022-09-21T08:37:32.812Z,11.31
2022-09-21T08:38:32.821Z,11.36
2022-09-21T08:39:32.793Z,11.39
2022-09-21T08:40:32.843Z,11.44
2022-09-21T08:41:32.787Z,11.50
2022-09-21T08:42:32.761Z,11.54
2022-09-21T08:43:32.750Z,11.57
2022-09-21T08:44:32.794Z,11.59
2022-09-21T08:45:32.746Z,11.65
2022-09-21T08:46:32.786Z,11.71
2022-09-21T08:47:32.701Z,11.74
2022-09-21T08:48:36.659Z,11.78
2022-09-21T08:49:32.697Z,11.80
2022-09-21T08:50:32.719Z,11.86
2022-09-21T08:51:32.663Z,11.89
2022-09-21T08:52:32.642Z,11.90
2022-09-21T08:53:32.643Z,11.97
2022-09-21T08:54:32.629Z,12.01
2022-09-21T08:55:32.614Z,12.04
2022-09-21T08:56:53.318Z,12.04
2022-09-21T08:57:33.581Z,12.11
2022-09-21T08:58:32.597Z,12.16
2022-09-21T08:59:32.559Z,12.26
2022-09-21T09:00:32.580Z,12.30
2022-09-21T09:01:32.580Z,12.34
2022-09-21T09:02:32.573Z,12.34
2022-09-21T09:03:32.511Z,12.41
2022-09-21T09:04:32.501Z,12.44
2022-09-21T09:05:32.493Z,12.46
2022-09-21T09:06:32.489Z,12.51
2022-09-21T09:07:32.490Z,12.52
2022-09-21T09:08:32.457Z,12.57
2022-09-21T09:09:32.461Z,12.59
2022-09-21T09:10:32.437Z,12.64
2022-09-21T09:11:32.439Z,12.70
2022-09-21T09:12:32.457Z,12.75
2022-09-21T09:13:32.402Z,12.78
2022-09-21T09:14:32.434Z,12.79
2022-09-21T09:15:32.386Z,12.82
2022-09-21T09:16:32.465Z,12.85
2022-09-21T09:17:32.358Z,12.89
2022-09-21T09:18:32.352Z,12.96
2022-09-21T09:19:32.328Z,13.00
2022-09-21T09:20:32.326Z,13.02
2022-09-21T09:21:32.683Z,13.00
2022-09-21T09:22:32.315Z,13.03
2022-09-21T09:23:32.288Z,13.02
2022-09-21T09:24:32.275Z,13.02
2022-09-21T09:25:32.267Z,13.07
2022-09-21T09:26:32.266Z,13.15
2022-09-21T09:27:32.256Z,13.11
2022-09-21T09:28:32.233Z,13.03
2022-09-21T09:29:32.232Z,13.15
2022-09-21T09:30:32.219Z,13.18
2022-09-21T09:31:32.262Z,13.29
2022-09-21T09:32:32.204Z,13.30
2022-09-21T09:33:32.165Z,13.38
2022-09-21T09:34:32.184Z,13.41
2022-09-21T09:35:32.208Z,13.47
2022-09-21T09:36:56.682Z,13.55
2022-09-21T09:37:33.134Z,13.56
2022-09-21T09:38:32.165Z,13.58
2022-09-21T09:39:32.105Z,13.62
2022-09-21T09:40:32.136Z,13.70
2022-09-21T09:41:32.105Z,13.77
2022-09-21T09:42:32.086Z,13.79
2022-09-21T09:43:32.065Z,13.84
2022-09-21T09:44:32.054Z,13.87
2022-09-21T09:45:32.025Z,13.94
2022-09-21T09:46:32.148Z,13.98
2022-09-21T09:47:32.019Z,14.04
2022-09-21T09:48:32.025Z,14.10
2022-09-21T09:49:31.993Z,14.12
2022-09-21T09:50:32.001Z,14.20
2022-09-21T09:51:31.973Z,14.25
2022-09-21T09:52:31.976Z,14.29
2022-09-21T09:53:31.952Z,14.32
2022-09-21T09:54:31.933Z,14.37
2022-09-21T09:55:31.947Z,14.42
2022-09-21T09:56:31.912Z,14.43
2022-09-21T09:57:31.899Z,14.52
2022-09-21T09:58:31.903Z,14.57
2022-09-21T09:59:31.882Z,14.64
2022-09-21T10:00:31.862Z,14.67
2022-09-21T10:01:32.051Z,14.64
2022-09-21T10:02:31.841Z,14.68
2022-09-21T10:03:31.841Z,14.65
2022-09-21T10:04:31.865Z,14.68
2022-09-21T10:05:31.811Z,14.69
2022-09-21T10:06:31.798Z,14.80
2022-09-21T10:07:31.780Z,14.75
2022-09-21T10:08:31.799Z,14.62
2022-09-21T10:09:31.773Z,14.67
2022-09-21T10:10:31.752Z,14.71
2022-09-21T10:11:31.750Z,14.75
2022-09-21T10:12:31.733Z,14.81
2022-09-21T10:13:31.711Z,14.84
2022-09-21T10:14:31.710Z,14.86
2022-09-21T10:15:31.691Z,14.91
2022-09-21T10:16:31.779Z,14.75
2022-09-21T10:17:31.667Z,14.64
2022-09-21T10:18:31.657Z,14.56
2022-09-21T10:19:31.676Z,14.54
2022-09-21T10:20:31.642Z,14.65
2022-09-21T10:21:31.631Z,14.60
2022-09-21T10:22:31.610Z,14.47
2022-09-21T10:23:31.627Z,14.57
2022-09-21T10:24:31.635Z,14.60
2022-09-21T10:25:31.581Z,14.68
2022-09-21T10:26:31.598Z,14.80
2022-09-21T10:27:31.548Z,14.90
2022-09-21T10:28:31.564Z,14.95
2022-09-21T10:29:31.555Z,15.05
2022-09-21T10:30:31.529Z,15.17
2022-09-21T10:31:31.585Z,15.21
2022-09-21T10:32:31.498Z,15.30
2022-09-21T10:33:31.503Z,15.31
2022-09-21T10:34:31.489Z,15.33
2022-09-21T10:35:31.519Z,15.36
2022-09-21T10:36:31.451Z,15.36
2022-09-21T10:37:31.448Z,15.36
2022-09-21T10:38:31.427Z,15.45
2022-09-21T10:39:31.429Z,15.46
2022-09-21T10:40:31.476Z,15.59
2022-09-21T10:41:31.395Z,15.59
2022-09-21T10:42:31.407Z,15.61
2022-09-21T10:43:33.611Z,15.66
2022-09-21T10:44:31.367Z,15.66
2022-09-21T10:45:31.456Z,15.68
2022-09-21T10:46:31.500Z,15.74
2022-09-21T10:47:31.330Z,15.78
2022-09-21T10:48:31.328Z,15.76
2022-09-21T10:49:31.351Z,15.84
2022-09-21T10:50:31.313Z,15.88
2022-09-21T10:51:31.277Z,15.92
2022-09-21T10:52:31.282Z,15.85
2022-09-21T10:53:31.257Z,15.79
2022-09-21T10:54:31.267Z,15.76
2022-09-21T10:55:31.237Z,15.56
2022-09-21T10:56:31.229Z,15.33
2022-09-21T10:57:31.207Z,15.12
2022-09-21T10:58:31.230Z,14.94
2022-09-21T10:59:31.185Z,14.78
2022-09-21T11:00:31.236Z,14.65
2022-09-21T11:01:31.286Z,14.54
2022-09-21T11:02:31.217Z,14.38
2022-09-21T11:03:31.135Z,14.32
2022-09-21T11:04:31.140Z,14.44
2022-09-21T11:05:31.152Z,14.62
2022-09-21T11:06:31.107Z,14.74
2022-09-21T11:07:31.112Z,14.90
2022-09-21T11:08:31.097Z,15.08
2022-09-21T11:09:31.075Z,15.09
2022-09-21T11:10:34.358Z,15.30
2022-09-21T11:11:31.045Z,15.45
2022-09-21T11:12:31.236Z,15.61
2022-09-21T11:13:31.026Z,15.60
2022-09-21T11:14:31.024Z,15.60
2022-09-21T11:15:31.054Z,15.72
2022-09-21T11:16:31.005Z,15.72
2022-09-21T11:17:30.989Z,15.61
2022-09-21T11:18:30.973Z,15.75
2022-09-21T11:19:30.964Z,15.85
2022-09-21T11:20:30.958Z,15.64
2022-09-21T11:21:30.942Z,15.59
2022-09-21T11:22:30.924Z,15.49
2022-09-21T11:23:30.912Z,15.49
2022-09-21T11:24:30.912Z,15.63
2022-09-21T11:25:30.891Z,15.72
2022-09-21T11:26:30.941Z,15.82
2022-09-21T11:27:30.861Z,15.86
2022-09-21T11:28:30.862Z,15.79
2022-09-21T11:29:30.847Z,15.82
2022-09-21T11:30:30.843Z,15.85
2022-09-21T11:31:30.831Z,15.89
2022-09-21T11:32:30.811Z,15.97
2022-09-21T11:33:30.798Z,16.04
2022-09-21T11:34:30.790Z,16.11
2022-09-21T11:35:30.774Z,16.15
2022-09-21T11:36:30.770Z,16.23
2022-09-21T11:37:30.803Z,16.27
2022-09-21T11:38:34.251Z,16.27
2022-09-21T11:39:30.728Z,16.30
2022-09-21T11:40:30.770Z,16.26
2022-09-21T11:41:30.701Z,16.26
2022-09-21T11:42:30.712Z,16.25
2022-09-21T11:43:30.701Z,16.22
2022-09-21T11:44:30.681Z,16.20
2022-09-21T11:45:30.666Z,16.15
2022-09-21T11:46:30.686Z,16.16
2022-09-21T11:47:30.673Z,16.18
2022-09-21T11:48:30.639Z,16.23
2022-09-21T11:49:30.659Z,16.30
2022-09-21T11:50:31.454Z,16.31
2022-09-21T11:51:30.591Z,16.33
2022-09-21T11:52:30.591Z,16.35
2022-09-21T11:53:30.577Z,16.33
2022-09-21T11:54:30.549Z,16.26
2022-09-21T11:55:30.549Z,16.22
2022-09-21T11:56:30.541Z,16.18
2022-09-21T11:57:30.539Z,16.14
2022-09-21T11:58:30.508Z,16.12
2022-09-21T11:59:30.524Z,16.09
2022-09-21T12:00:30.488Z,16.04
2022-09-21T12:01:30.480Z,16.00
2022-09-21T12:02:30.624Z,15.92
2022-09-21T12:03:30.480Z,15.92
2022-09-21T12:04:30.457Z,15.92
2022-09-21T12:05:30.452Z,15.92
2022-09-21T12:06:30.428Z,15.88
2022-09-21T12:07:30.439Z,15.85
2022-09-21T12:08:30.396Z,15.82
2022-09-21T12:09:30.400Z,15.81
2022-09-21T12:10:30.378Z,15.82
2022-09-21T12:11:30.389Z,15.75
2022-09-21T12:12:30.358Z,15.72
2022-09-21T12:13:30.350Z,15.63
2022-09-21T12:14:30.369Z,15.52
2022-09-21T12:15:30.339Z,15.42
2022-09-21T12:16:31.180Z,15.33
2022-09-21T12:17:30.300Z,15.35
2022-09-21T12:18:30.310Z,15.31
2022-09-21T12:19:30.297Z,15.28
2022-09-21T12:20:30.256Z,15.24
2022-09-21T12:21:30.286Z,15.21
2022-09-21T12:22:30.238Z,15.23
2022-09-21T12:23:30.238Z,15.24
2022-09-21T12:24:32.215Z,15.27
2022-09-21T12:25:30.223Z,15.33
2022-09-21T12:26:30.211Z,15.36
2022-09-21T12:27:30.187Z,15.39
2022-09-21T12:28:30.222Z,15.41
2022-09-21T12:29:30.187Z,15.43
2022-09-21T12:30:30.217Z,15.49
2022-09-21T12:31:30.136Z,15.52
2022-09-21T12:32:30.154Z,15.52
2022-09-21T12:33:30.116Z,15.45
2022-09-21T12:34:30.140Z,15.39
2022-09-21T12:35:30.155Z,15.33
2022-09-21T12:36:30.085Z,15.28
2022-09-21T12:37:30.065Z,15.23
2022-09-21T12:38:30.181Z,15.13
2022-09-21T12:39:30.050Z,15.03
2022-09-21T12:40:30.119Z,14.93
2022-09-21T12:41:30.037Z,14.88
2022-09-21T12:42:30.012Z,14.88
2022-09-21T12:43:30.013Z,14.90
2022-09-21T12:44:29.983Z,14.86
2022-09-21T12:45:29.986Z,14.80
2022-09-21T12:46:30.075Z,14.68
2022-09-21T12:47:29.953Z,14.67
2022-09-21T12:48:29.970Z,14.61
2022-09-21T12:49:29.936Z,14.62
2022-09-21T12:50:29.966Z,14.65
2022-09-21T12:51:29.932Z,14.67
2022-09-21T12:52:29.894Z,14.72
2022-09-21T12:53:29.912Z,14.74
2022-09-21T12:54:29.885Z,14.81
2022-09-21T12:55:29.867Z,14.78
2022-09-21T12:56:29.867Z,14.83
2022-09-21T12:57:45.982Z,14.83
2022-09-21T12:58:30.830Z,14.81
2022-09-21T12:59:29.814Z,14.87
2022-09-21T13:00:29.829Z,14.90
2022-09-21T13:01:29.938Z,14.87
2022-09-21T13:02:29.952Z,14.88
2022-09-21T13:03:29.771Z,14.90
2022-09-21T13:04:29.762Z,14.95
2022-09-21T13:05:29.753Z,14.98
2022-09-21T13:06:29.752Z,14.94
2022-09-21T13:07:29.724Z,14.95
2022-09-21T13:08:29.748Z,14.94
2022-09-21T13:09:29.721Z,14.91
2022-09-21T13:10:29.691Z,14.87